createdAt,value
2018-01-06T00:00:46.394Z,88.48
2018-01-06T00:03:13.877Z,88.53
2018-01-06T00:05:41.335Z,88.57
2018-01-06T00:08:08.827Z,88.50
2018-01-06T00:10:36.283Z,88.33
2018-01-06T00:13:03.887Z,88.44
2018-01-06T00:15:31.357Z,88.75
2018-01-06T00:17:58.826Z,89.14
2018-01-06T00:20:26.293Z,89.41
2018-01-06T00:22:53.770Z,89.07
2018-01-06T00:25:21.227Z,88.45
2018-01-06T00:27:48.715Z,88.04
2018-01-06T00:30:16.164Z,87.55
2018-01-06T00:32:43.655Z,88.09
2018-01-06T00:35:11.152Z,87.89
2018-01-06T00:37:38.606Z,88.07
2018-01-06T00:40:06.082Z,88.59
2018-01-06T00:42:33.546Z,89.04
2018-01-06T00:45:01.019Z,89.56
2018-01-06T00:47:28.480Z,89.87
2018-01-06T00:49:55.959Z,90.04
2018-01-06T00:52:23.406Z,89.63
2018-01-06T00:54:50.878Z,88.74
2018-01-06T00:57:18.345Z,88.85
2018-01-06T00:59:45.840Z,88.69
2018-01-06T01:02:13.299Z,88.36
2018-01-06T01:04:40.787Z,88.14
2018-01-06T01:07:08.248Z,87.99
2018-01-06T01:09:35.747Z,88.12
2018-01-06T01:12:03.210Z,88.64
2018-01-06T01:14:30.687Z,89.17
2018-01-06T01:16:58.166Z,89.46
2018-01-06T01:19:25.611Z,89.61
2018-01-06T01:21:53.086Z,89.82
2018-01-06T01:24:20.548Z,89.74
2018-01-06T01:26:48.936Z,88.84
2018-01-06T01:29:16.395Z,87.43
2018-01-06T01:31:43.870Z,87.77
2018-01-06T01:34:11.335Z,87.55
2018-01-06T01:36:38.815Z,86.69
2018-01-06T01:39:06.280Z,86.75
2018-01-06T01:41:33.815Z,86.79
2018-01-06T01:44:01.284Z,86.76
2018-01-06T01:46:28.755Z,87.12
2018-01-06T01:48:56.226Z,87.53
2018-01-06T01:51:23.718Z,87.14
2018-01-06T01:53:51.178Z,87.13
2018-01-06T01:56:18.631Z,87.62
2018-01-06T01:58:46.109Z,88.17
2018-01-06T02:01:13.564Z,88.42
2018-01-06T02:03:41.040Z,88.08
2018-01-06T02:06:08.510Z,88.22
2018-01-06T02:08:36.007Z,87.71
2018-01-06T02:11:03.463Z,87.96
2018-01-06T02:13:30.958Z,88.01
2018-01-06T02:15:58.415Z,88.20
2018-01-06T02:18:25.885Z,88.79
2018-01-06T02:20:53.358Z,88.46
2018-01-06T02:23:20.850Z,88.99
2018-01-06T02:25:48.303Z,89.60
2018-01-06T02:28:15.799Z,90.12
2018-01-06T02:30:43.267Z,90.20
2018-01-06T02:33:10.721Z,90.44
2018-01-06T02:35:38.207Z,90.53
2018-01-06T02:38:05.663Z,90.72
2018-01-06T02:40:33.148Z,90.76
2018-01-06T02:43:00.619Z,91.01
2018-01-06T02:45:28.100Z,91.10
2018-01-06T02:47:55.563Z,91.19
2018-01-06T02:50:23.329Z,91.38
2018-01-06T02:52:50.787Z,91.38
2018-01-06T02:55:18.275Z,91.30
2018-01-06T02:57:45.741Z,91.38
2018-01-06T03:00:13.215Z,91.30
2018-01-06T03:02:40.677Z,91.11
2018-01-06T03:05:08.175Z,91.18
2018-01-06T03:07:35.666Z,91.29
2018-01-06T03:10:03.126Z,91.48
2018-01-06T03:12:31.546Z,91.52
2018-01-06T03:14:59.000Z,91.75
2018-01-06T03:17:26.493Z,91.72
2018-01-06T03:19:53.979Z,91.72
2018-01-06T03:22:21.442Z,91.65
2018-01-06T03:24:48.902Z,91.69
2018-01-06T03:27:16.379Z,91.65
2018-01-06T03:29:43.844Z,91.72
2018-01-06T03:32:11.316Z,91.84
2018-01-06T03:34:38.774Z,92.08
2018-01-06T03:37:06.273Z,92.39
2018-01-06T03:39:33.727Z,92.74
2018-01-06T03:42:01.259Z,92.75
2018-01-06T03:44:28.711Z,92.73
2018-01-06T03:46:56.195Z,92.74
2018-01-06T03:49:23.650Z,92.76
2018-01-06T03:51:51.102Z,92.76
2018-01-06T03:54:19.471Z,92.70
2018-01-06T03:56:46.961Z,92.75
2018-01-06T03:59:14.444Z,92.72
2018-01-06T04:01:41.898Z,92.55
2018-01-06T04:04:09.403Z,92.61
2018-01-06T04:06:36.888Z,92.62
2018-01-06T04:09:04.367Z,92.69
2018-01-06T04:11:31.838Z,92.75
2018-01-06T04:13:59.314Z,92.76
2018-01-06T04:16:26.770Z,92.86
2018-01-06T04:18:54.246Z,92.84
2018-01-06T04:21:21.703Z,92.78
2018-01-06T04:23:49.216Z,92.81
2018-01-06T04:26:16.680Z,92.68
2018-01-06T04:28:44.138Z,92.23
2018-01-06T04:31:11.606Z,91.79
2018-01-06T04:33:39.063Z,91.55
2018-01-06T04:36:06.527Z,91.81
2018-01-06T04:38:33.979Z,91.89
2018-01-06T04:41:01.443Z,91.64
2018-01-06T04:43:28.903Z,91.52
2018-01-06T04:45:56.387Z,91.01
2018-01-06T04:48:23.843Z,91.11
2018-01-06T04:50:51.314Z,91.36
2018-01-06T04:53:18.777Z,91.71
2018-01-06T04:55:46.259Z,91.92
2018-01-06T04:58:13.710Z,91.94
2018-01-06T05:00:41.167Z,92.08
2018-01-06T05:03:08.647Z,92.01
2018-01-06T05:05:36.108Z,91.97
2018-01-06T05:08:03.587Z,91.74
2018-01-06T05:10:31.045Z,91.78
2018-01-06T05:12:58.524Z,91.45
2018-01-06T05:15:25.975Z,90.64
2018-01-06T05:17:53.487Z,91.11
2018-01-06T05:20:20.938Z,91.34
2018-01-06T05:22:48.422Z,91.67
2018-01-06T05:25:15.879Z,92.05
2018-01-06T05:27:43.350Z,92.08
2018-01-06T05:30:10.811Z,91.73
2018-01-06T05:32:38.299Z,91.63
2018-01-06T05:35:05.754Z,91.80
2018-01-06T05:37:33.206Z,91.49
2018-01-06T05:40:00.696Z,91.55
2018-01-06T05:42:28.242Z,91.76
2018-01-06T05:44:55.788Z,91.82
2018-01-06T05:47:23.243Z,92.00
2018-01-06T05:49:50.719Z,92.03
2018-01-06T05:52:18.172Z,92.09
2018-01-06T05:54:45.644Z,92.04
2018-01-06T05:57:13.091Z,92.23
2018-01-06T05:59:40.567Z,92.18
2018-01-06T06:02:08.031Z,92.11
2018-01-06T06:04:35.511Z,92.25
2018-01-06T06:07:02.959Z,92.25
2018-01-06T06:09:30.436Z,92.24
2018-01-06T06:11:57.896Z,92.37
2018-01-06T06:14:25.360Z,92.52
2018-01-06T06:16:52.833Z,92.66
2018-01-06T06:19:20.279Z,92.71
2018-01-06T06:21:47.750Z,92.77
2018-01-06T06:24:15.208Z,92.49
2018-01-06T06:26:42.683Z,92.02
2018-01-06T06:29:10.147Z,91.99
2018-01-06T06:31:37.689Z,92.24
2018-01-06T06:34:05.122Z,92.32
2018-01-06T06:36:32.612Z,92.15
2018-01-06T06:39:00.072Z,91.86
2018-01-06T06:41:27.603Z,91.67
2018-01-06T06:43:55.062Z,91.82
2018-01-06T06:46:22.521Z,92.01
2018-01-06T06:48:49.995Z,92.10
2018-01-06T06:51:17.454Z,91.98
2018-01-06T06:53:44.927Z,91.31
2018-01-06T06:56:12.379Z,91.18
2018-01-06T06:58:39.847Z,91.22
2018-01-06T07:01:07.303Z,91.44
2018-01-06T07:03:34.787Z,91.71
2018-01-06T07:06:02.239Z,91.51
2018-01-06T07:08:29.727Z,91.04
2018-01-06T07:10:57.188Z,91.13
2018-01-06T07:13:24.680Z,90.95
2018-01-06T07:15:52.147Z,89.44
2018-01-06T07:18:19.601Z,89.37
2018-01-06T07:20:47.083Z,89.94
2018-01-06T07:23:14.544Z,90.09
2018-01-06T07:25:42.026Z,90.36
2018-01-06T07:28:09.483Z,90.25
2018-01-06T07:30:36.958Z,90.45
2018-01-06T07:33:04.424Z,90.52
2018-01-06T07:35:31.914Z,89.88
2018-01-06T07:37:59.378Z,90.27
2018-01-06T07:40:26.868Z,89.87
2018-01-06T07:42:54.333Z,90.04
2018-01-06T07:45:21.822Z,90.24
2018-01-06T07:47:49.279Z,90.36
2018-01-06T07:50:16.731Z,90.48
2018-01-06T07:52:44.219Z,90.54
2018-01-06T07:55:11.770Z,90.22
2018-01-06T07:57:39.253Z,90.49
2018-01-06T08:00:06.715Z,90.51
2018-01-06T08:02:34.195Z,90.58
2018-01-06T08:05:01.659Z,89.96
2018-01-06T08:07:29.127Z,89.44
2018-01-06T08:09:56.584Z,89.63
2018-01-06T08:12:24.067Z,89.90
2018-01-06T08:14:51.522Z,89.93
2018-01-06T08:17:19.007Z,89.42
2018-01-06T08:19:46.467Z,88.83
2018-01-06T08:22:13.915Z,88.62
2018-01-06T08:24:41.387Z,88.48
2018-01-06T08:27:08.843Z,88.29
2018-01-06T08:29:36.322Z,88.32
2018-01-06T08:32:03.790Z,88.28
2018-01-06T08:34:31.275Z,87.71
2018-01-06T08:36:58.736Z,87.31
2018-01-06T08:39:26.219Z,87.28
2018-01-06T08:41:53.688Z,87.31
2018-01-06T08:44:21.182Z,87.36
2018-01-06T08:46:48.641Z,86.82
2018-01-06T08:49:16.137Z,86.97
2018-01-06T08:51:43.586Z,87.05
2018-01-06T08:54:11.054Z,87.08
2018-01-06T08:56:38.832Z,86.07
2018-01-06T08:59:06.346Z,86.50
2018-01-06T09:01:33.809Z,86.52
2018-01-06T09:04:01.261Z,86.31
2018-01-06T09:06:28.730Z,85.81
2018-01-06T09:08:56.182Z,85.96
2018-01-06T09:11:23.659Z,85.94
2018-01-06T09:13:51.110Z,85.73
2018-01-06T09:16:18.591Z,85.45
2018-01-06T09:18:46.047Z,85.18
2018-01-06T09:21:13.763Z,85.17
2018-01-06T09:23:41.206Z,85.30
2018-01-06T09:26:08.684Z,85.35
2018-01-06T09:28:36.140Z,85.27
2018-01-06T09:31:03.804Z,85.05
2018-01-06T09:33:31.268Z,84.73
2018-01-06T09:35:58.747Z,84.76
2018-01-06T09:38:26.199Z,84.46
2018-01-06T09:40:53.679Z,84.37
2018-01-06T09:43:21.129Z,84.85
2018-01-06T09:45:48.608Z,85.05
2018-01-06T09:48:16.064Z,84.46
2018-01-06T09:50:43.551Z,84.34
2018-01-06T09:53:11.008Z,84.41
2018-01-06T09:55:38.491Z,84.41
2018-01-06T09:58:05.947Z,84.34
2018-01-06T10:00:33.427Z,84.41
2018-01-06T10:03:00.887Z,84.40
2018-01-06T10:05:28.362Z,84.32
2018-01-06T10:07:55.851Z,84.56
2018-01-06T10:10:23.372Z,84.73
2018-01-06T10:12:50.827Z,84.47
2018-01-06T10:15:18.303Z,84.44
2018-01-06T10:17:45.771Z,84.26
2018-01-06T10:20:13.270Z,84.17
2018-01-06T10:22:40.732Z,83.70
2018-01-06T10:25:08.187Z,82.95
2018-01-06T10:27:35.660Z,82.46
2018-01-06T10:30:03.127Z,81.92
2018-01-06T10:32:30.595Z,81.21
2018-01-06T10:34:58.047Z,82.07
2018-01-06T10:37:25.536Z,81.65
2018-01-06T10:39:52.992Z,80.41
2018-01-06T10:42:20.478Z,80.70
2018-01-06T10:44:47.931Z,82.23
2018-01-06T10:47:15.416Z,82.54
2018-01-06T10:49:42.890Z,82.02
2018-01-06T10:52:10.384Z,81.53
2018-01-06T10:54:37.880Z,81.50
2018-01-06T10:57:05.355Z,81.56
2018-01-06T10:59:32.808Z,81.28
2018-01-06T11:02:05.703Z,81.81
2018-01-06T11:04:33.167Z,81.24
2018-01-06T11:07:00.642Z,81.44
2018-01-06T11:09:28.114Z,81.36
2018-01-06T11:11:55.595Z,82.53
2018-01-06T11:14:23.055Z,81.67
2018-01-06T11:16:50.522Z,81.46
2018-01-06T11:19:17.996Z,81.02
2018-01-06T11:21:45.475Z,81.72
2018-01-06T11:24:12.930Z,81.23
2018-01-06T11:26:40.403Z,81.00
2018-01-06T11:29:07.864Z,81.45
2018-01-06T11:31:35.337Z,80.84
2018-01-06T11:34:02.787Z,80.81
2018-01-06T11:36:30.261Z,80.83
2018-01-06T11:38:57.723Z,80.76
2018-01-06T11:41:25.194Z,80.69
2018-01-06T11:43:52.648Z,81.22
2018-01-06T11:46:20.143Z,80.72
2018-01-06T11:48:47.595Z,80.56
2018-01-06T11:51:15.059Z,80.47
2018-01-06T11:53:42.534Z,80.61
2018-01-06T11:56:09.991Z,80.67
2018-01-06T11:58:37.476Z,81.04
2018-01-06T12:01:04.935Z,81.15
2018-01-06T12:03:32.419Z,81.32
2018-01-06T12:05:59.868Z,80.80
2018-01-06T12:08:27.339Z,79.09
2018-01-06T12:10:54.803Z,80.14
2018-01-06T12:13:22.281Z,79.21
2018-01-06T12:15:49.737Z,78.52
2018-01-06T12:18:17.205Z,78.16
2018-01-06T12:20:44.671Z,79.05
2018-01-06T12:23:12.163Z,79.31
2018-01-06T12:25:39.615Z,79.60
2018-01-06T12:28:07.087Z,80.04
2018-01-06T12:30:34.542Z,80.01
2018-01-06T12:33:02.011Z,80.36
2018-01-06T12:35:29.455Z,80.40
2018-01-06T12:37:56.932Z,80.74
2018-01-06T12:40:24.384Z,80.54
2018-01-06T12:42:51.884Z,80.36
2018-01-06T12:45:19.343Z,81.18
2018-01-06T12:47:46.823Z,81.19
2018-01-06T12:50:14.283Z,81.16
2018-01-06T12:52:41.765Z,81.01
2018-01-06T12:55:09.226Z,81.27
2018-01-06T12:57:36.696Z,81.71
2018-01-06T13:00:04.152Z,81.54
2018-01-06T13:02:31.641Z,81.79
2018-01-06T13:04:59.106Z,82.02
2018-01-06T13:07:26.590Z,82.56
2018-01-06T13:09:54.519Z,82.05
2018-01-06T13:12:21.981Z,82.56
2018-01-06T13:14:49.450Z,83.22
2018-01-06T13:17:16.906Z,83.15
2018-01-06T13:19:44.390Z,82.97
2018-01-06T13:22:11.851Z,82.34
2018-01-06T13:24:39.338Z,82.03
2018-01-06T13:27:06.831Z,81.43
2018-01-06T13:29:34.332Z,82.83
2018-01-06T13:32:01.783Z,82.88
2018-01-06T13:34:29.259Z,82.87
2018-01-06T13:36:56.711Z,83.20
2018-01-06T13:39:24.188Z,82.78
2018-01-06T13:41:51.647Z,82.90
2018-01-06T13:44:19.120Z,83.43
2018-01-06T13:46:46.591Z,84.28
2018-01-06T13:49:14.071Z,83.30
2018-01-06T13:51:41.527Z,83.05
2018-01-06T13:54:09.939Z,83.16
2018-01-06T13:56:37.400Z,83.44
2018-01-06T13:59:04.883Z,83.64
2018-01-06T14:01:32.347Z,83.72
2018-01-06T14:03:59.830Z,83.93
2018-01-06T14:06:27.291Z,84.07
2018-01-06T14:08:54.759Z,84.46
2018-01-06T14:11:22.211Z,84.33
2018-01-06T14:13:49.679Z,84.49
2018-01-06T14:16:17.131Z,85.03
2018-01-06T14:18:44.631Z,85.28
2018-01-06T14:21:12.084Z,84.11
2018-01-06T14:23:39.570Z,83.54
2018-01-06T14:26:07.034Z,83.46
2018-01-06T14:28:34.524Z,83.95
2018-01-06T14:31:01.981Z,85.27
2018-01-06T14:33:29.446Z,83.94
2018-01-06T14:35:56.938Z,84.14
2018-01-06T14:38:24.392Z,84.77
2018-01-06T14:40:51.875Z,84.64
2018-01-06T14:43:19.343Z,85.30
2018-01-06T14:45:46.835Z,85.30
2018-01-06T14:48:14.295Z,85.33
2018-01-06T14:50:41.770Z,84.81
2018-01-06T14:53:09.242Z,84.86
2018-01-06T14:55:36.727Z,84.60
2018-01-06T14:58:04.447Z,84.91
2018-01-06T15:00:31.931Z,85.23
2018-01-06T15:02:59.407Z,86.05
2018-01-06T15:05:26.886Z,85.93
2018-01-06T15:07:54.351Z,86.04
2018-01-06T15:10:21.833Z,85.47
2018-01-06T15:12:49.291Z,85.52
2018-01-06T15:15:16.776Z,85.69
2018-01-06T15:17:44.246Z,85.68
2018-01-06T15:20:11.722Z,86.53
2018-01-06T15:22:39.185Z,87.06
2018-01-06T15:25:06.707Z,87.77
2018-01-06T15:27:35.187Z,87.62
2018-01-06T15:30:02.682Z,87.40
2018-01-06T15:32:30.151Z,87.97
2018-01-06T15:34:57.650Z,88.06
2018-01-06T15:37:25.116Z,88.33
2018-01-06T15:39:52.607Z,88.61
2018-01-06T15:42:20.079Z,89.14
2018-01-06T15:44:47.564Z,89.27
2018-01-06T15:47:15.040Z,89.11
2018-01-06T15:49:42.537Z,88.77
2018-01-06T15:52:10.011Z,89.14
2018-01-06T15:54:37.475Z,89.58
2018-01-06T15:57:04.963Z,89.99
2018-01-06T15:59:32.422Z,90.26
2018-01-06T16:01:59.904Z,90.56
2018-01-06T16:04:27.366Z,90.88
2018-01-06T16:06:54.838Z,91.06
2018-01-06T16:09:22.307Z,91.16
2018-01-06T16:11:49.783Z,91.16
2018-01-06T16:14:17.239Z,91.22
2018-01-06T16:16:46.647Z,91.35
2018-01-06T16:19:14.109Z,91.53
2018-01-06T16:21:41.587Z,91.69
2018-01-06T16:24:09.047Z,91.90
2018-01-06T16:26:36.542Z,92.07
2018-01-06T16:29:04.001Z,92.18
2018-01-06T16:31:31.504Z,92.28
2018-01-06T16:33:58.982Z,92.44
2018-01-06T16:36:26.469Z,92.50
2018-01-06T16:38:53.933Z,92.51
2018-01-06T16:41:21.410Z,92.43
2018-01-06T16:43:48.882Z,92.47
2018-01-06T16:46:17.378Z,92.63
2018-01-06T16:48:44.858Z,92.76
2018-01-06T16:51:12.351Z,92.87
2018-01-06T16:53:39.829Z,92.90
2018-01-06T16:56:07.325Z,92.79
2018-01-06T16:58:34.795Z,92.47
2018-01-06T17:01:02.284Z,92.09
2018-01-06T17:03:29.758Z,91.48
2018-01-06T17:05:57.244Z,91.42
2018-01-06T17:08:24.707Z,91.40
2018-01-06T17:10:52.203Z,90.99
2018-01-06T17:13:19.701Z,90.98
2018-01-06T17:15:47.168Z,90.90
2018-01-06T17:18:14.656Z,90.89
2018-01-06T17:20:42.135Z,91.27
2018-01-06T17:23:09.615Z,91.56
2018-01-06T17:25:37.084Z,91.87
2018-01-06T17:28:04.566Z,92.12
2018-01-06T17:30:32.032Z,92.25
2018-01-06T17:32:59.511Z,92.19
2018-01-06T17:35:26.975Z,92.18
2018-01-06T17:37:54.455Z,91.60
2018-01-06T17:40:21.939Z,91.69
2018-01-06T17:42:49.430Z,91.51
2018-01-06T17:45:16.899Z,90.63
2018-01-06T17:47:44.427Z,89.38
2018-01-06T17:50:11.891Z,89.12
2018-01-06T17:52:40.316Z,89.08
2018-01-06T17:55:07.801Z,89.04
2018-01-06T17:57:35.295Z,89.10
2018-01-06T18:00:02.755Z,89.06
2018-01-06T18:02:30.252Z,89.17
2018-01-06T18:04:57.720Z,89.16
2018-01-06T18:07:25.200Z,88.91
2018-01-06T18:09:53.639Z,89.13
2018-01-06T18:12:21.134Z,88.93
2018-01-06T18:14:48.601Z,88.87
2018-01-06T18:17:16.706Z,88.60
2018-01-06T18:19:44.165Z,88.42
2018-01-06T18:22:11.650Z,88.22
2018-01-06T18:24:39.120Z,88.32
2018-01-06T18:27:06.606Z,88.69
2018-01-06T18:29:34.098Z,88.87
2018-01-06T18:32:01.615Z,89.06
2018-01-06T18:34:30.034Z,89.04
2018-01-06T18:36:57.519Z,88.44
2018-01-06T18:39:25.000Z,88.60
2018-01-06T18:41:52.471Z,88.71
2018-01-06T18:44:19.954Z,88.52
2018-01-06T18:46:47.419Z,88.62
2018-01-06T18:49:14.901Z,88.16
2018-01-06T18:51:42.364Z,88.32
2018-01-06T18:54:09.842Z,88.84
2018-01-06T18:56:37.312Z,89.07
2018-01-06T18:59:04.795Z,88.97
2018-01-06T19:01:32.251Z,89.02
2018-01-06T19:03:59.731Z,88.95
2018-01-06T19:06:27.187Z,88.95
2018-01-06T19:08:54.710Z,89.11
2018-01-06T19:11:22.168Z,89.17
2018-01-06T19:13:49.666Z,88.96
2018-01-06T19:16:17.187Z,88.90
2018-01-06T19:18:44.663Z,89.10
2018-01-06T19:21:12.136Z,89.12
2018-01-06T19:23:39.610Z,89.19
2018-01-06T19:26:07.076Z,89.23
2018-01-06T19:28:34.560Z,89.01
2018-01-06T19:31:02.031Z,88.78
2018-01-06T19:33:29.506Z,88.78
2018-01-06T19:35:56.976Z,88.85
2018-01-06T19:38:24.452Z,89.00
2018-01-06T19:40:51.906Z,89.07
2018-01-06T19:43:19.390Z,89.40
2018-01-06T19:45:46.846Z,89.14
2018-01-06T19:48:14.324Z,89.30
2018-01-06T19:50:41.786Z,89.29
2018-01-06T19:53:09.271Z,89.23
2018-01-06T19:55:36.743Z,89.20
2018-01-06T19:58:05.230Z,89.31
2018-01-06T20:00:32.687Z,89.33
2018-01-06T20:03:00.142Z,89.81
2018-01-06T20:05:27.627Z,90.12
2018-01-06T20:07:55.092Z,90.16
2018-01-06T20:10:22.578Z,90.69
2018-01-06T20:12:50.044Z,90.95
2018-01-06T20:15:17.535Z,91.07
2018-01-06T20:17:45.004Z,91.10
2018-01-06T20:20:12.488Z,90.88
2018-01-06T20:22:39.954Z,91.01
2018-01-06T20:25:07.443Z,91.03
2018-01-06T20:27:34.928Z,90.55
2018-01-06T20:30:02.451Z,90.05
2018-01-06T20:32:29.917Z,90.03
2018-01-06T20:34:57.399Z,89.39
2018-01-06T20:37:24.867Z,89.19
2018-01-06T20:39:52.355Z,87.98
2018-01-06T20:42:19.831Z,88.14
2018-01-06T20:44:47.952Z,88.46
2018-01-06T20:47:16.427Z,88.82
2018-01-06T20:49:43.935Z,89.20
2018-01-06T20:52:11.404Z,89.46
2018-01-06T20:54:42.883Z,89.36
2018-01-06T20:57:10.343Z,89.03
2018-01-06T20:59:37.836Z,88.11
2018-01-06T21:02:05.304Z,87.38
2018-01-06T21:04:32.797Z,87.52
2018-01-06T21:07:00.275Z,86.05
2018-01-06T21:09:27.771Z,86.59
2018-01-06T21:11:55.231Z,86.75
2018-01-06T21:14:22.727Z,87.02
2018-01-06T21:16:50.192Z,87.78
2018-01-06T21:19:17.678Z,87.66
2018-01-06T21:21:45.159Z,87.48
2018-01-06T21:24:12.645Z,87.66
2018-01-06T21:26:40.132Z,87.94
2018-01-06T21:29:07.607Z,87.85
2018-01-06T21:31:35.088Z,87.26
2018-01-06T21:34:02.556Z,86.36
2018-01-06T21:36:30.036Z,86.65
2018-01-06T21:38:57.498Z,86.25
2018-01-06T21:41:24.991Z,86.50
2018-01-06T21:43:52.451Z,86.28
2018-01-06T21:46:19.949Z,86.32
2018-01-06T21:48:47.413Z,86.37
2018-01-06T21:51:14.894Z,86.39
2018-01-06T21:53:42.357Z,86.00
2018-01-06T21:56:09.840Z,84.99
2018-01-06T21:58:37.295Z,84.82
2018-01-06T22:01:04.782Z,85.39
2018-01-06T22:03:32.238Z,84.98
2018-01-06T22:05:59.727Z,85.59
2018-01-06T22:08:27.208Z,85.34
2018-01-06T22:10:54.676Z,85.96
2018-01-06T22:13:22.173Z,86.35
2018-01-06T22:15:49.652Z,86.24
2018-01-06T22:18:17.146Z,86.22
2018-01-06T22:20:44.611Z,86.32
2018-01-06T22:23:12.092Z,86.44
2018-01-06T22:25:39.568Z,87.05
2018-01-06T22:28:07.073Z,86.67
2018-01-06T22:30:34.541Z,86.01
2018-01-06T22:33:02.044Z,86.36
2018-01-06T22:35:29.517Z,86.67
2018-01-06T22:37:57.005Z,86.78
2018-01-06T22:40:24.491Z,86.68
2018-01-06T22:42:51.962Z,86.99
2018-01-06T22:45:19.471Z,87.50
2018-01-06T22:47:46.948Z,87.45
2018-01-06T22:50:14.439Z,86.39
2018-01-06T22:52:41.896Z,86.49
2018-01-06T22:55:09.391Z,86.60
2018-01-06T22:57:36.857Z,86.11
2018-01-06T23:00:04.340Z,86.76
2018-01-06T23:02:31.817Z,86.82
2018-01-06T23:04:59.304Z,87.11
2018-01-06T23:07:26.781Z,87.62
2018-01-06T23:09:54.242Z,87.25
2018-01-06T23:12:21.726Z,87.58
2018-01-06T23:14:49.194Z,87.13
2018-01-06T23:17:16.683Z,87.37
2018-01-06T23:19:44.159Z,87.30
2018-01-06T23:22:11.652Z,87.32
2018-01-06T23:24:39.120Z,87.68
2018-01-06T23:27:06.606Z,87.42
2018-01-06T23:29:34.074Z,87.70
2018-01-06T23:32:01.567Z,87.75
2018-01-06T23:34:29.036Z,87.64
2018-01-06T23:36:56.530Z,88.28
2018-01-06T23:39:23.997Z,87.91
2018-01-06T23:41:51.472Z,88.06
2018-01-06T23:44:18.962Z,88.19
2018-01-06T23:46:46.443Z,88.14
2018-01-06T23:49:13.931Z,87.48
2018-01-06T23:51:41.398Z,87.93
2018-01-06T23:54:08.882Z,88.16
2018-01-06T23:56:36.349Z,88.30
2018-01-06T23:59:03.839Z,87.98
